Pagrindinis puslapis
METAR-TAF:

METAR-TAF

Oro uostai :

Marianhamina, Suomija

platuma: 60-07N, ilguma: 019-54E, Aukštis: 6 m

Dabartinis oras

Ataskaita buvo paskelbta 13 minutes, ne 12:20 UTC
Vėjas 4 kt iš Pietvakarių, svyruoja nuo Pietų/Pietvakarių ir Vakarų
Temperatūra 1°C
Drėgmė 86%
Slėgis 1022 hPa
Matomumas 10 km arba daugiau
nėra debesų žemiau 1500 m ir nėra kamuolinių lietaus debesų

METAR: EFMA 231220Z AUTO 23004KT 210V270 CAVOK 01/M01 Q1022

Laikas: 14:33 (12:33 UTC)

Prognozė

Ataskaita buvo paskelbta 1 valandą ir 3 minutes, ne 11:30 UTC
Prognozė galioja nuo 23 metu 12 UTC su 23 metu 21 UTC
Vėjas 6 kt iš Pietvakarių
Matomumas 10 km arba daugiau
nėra debesų žemiau 1500 m ir nėra kamuolinių lietaus debesų
Tapsmas
nuo 23 metu 19 UTC su 23 metu 21 UTC
Matomumas: 3000 m
Su prošvaistėmis ne aukštis 300 ft
rūkana

TAF: EFMA 231130Z 2312/2321 23006KT CAVOK BECMG 2319/2321 3000 BR BKN003

Orai ataskaitas ir orų prognozės (METAR, TAF).

turimą stotys yra geltonos ir raudonos taškus žemėlapyje.

Perkelti pele per norėdami pamatyti stoties vardą.

Tada spustelėkite, norėdami matyti oro stebėjimo ir prognozės.

Norėdami pakeisti žemėlapį: spustelėkite ant žalios mygtukų su juodo kryžiaus žemyn,; žalią mygtuką su brūkšneliu, jei norite nutolinti; arba žalių rodyklių gretimoms žemėlapius.


METAR-TAF: